sensor_id;sensor_type;location;lat;lon;timestamp;pressure;altitude;pressure_sealevel;temperature;humidity
17505;BME280;8870;50.950;11.762;2023-03-26T00:04:37;97407.72;;;6.78;100.00
17505;BME280;8870;50.950;11.762;2023-03-26T00:10:09;97413.41;;;6.75;100.00
17505;BME280;8870;50.950;11.762;2023-03-26T00:15:33;97412.56;;;6.74;100.00
17505;BME280;8870;50.950;11.762;2023-03-26T00:21:06;97421.44;;;6.75;100.00
17505;BME280;8870;50.950;11.762;2023-03-26T00:26:24;97411.59;;;6.84;100.00
17505;BME280;8870;50.950;11.762;2023-03-26T00:31:59;97419.63;;;6.84;100.00
17505;BME280;8870;50.950;11.762;2023-03-26T00:37:17;97407.91;;;6.85;100.00
17505;BME280;8870;50.950;11.762;2023-03-26T00:42:48;97411.78;;;6.90;100.00
17505;BME280;8870;50.950;11.762;2023-03-26T00:48:09;97397.53;;;6.90;100.00
17505;BME280;8870;50.950;11.762;2023-03-26T00:53:57;97398.22;;;6.92;100.00
17505;BME280;8870;50.950;11.762;2023-03-26T00:59:29;97404.38;;;6.84;100.00
17505;BME280;8870;50.950;11.762;2023-03-26T01:04:56;97396.84;;;6.79;100.00
17505;BME280;8870;50.950;11.762;2023-03-26T01:10:28;97405.38;;;6.83;100.00
17505;BME280;8870;50.950;11.762;2023-03-26T01:15:52;97404.38;;;6.76;100.00
17505;BME280;8870;50.950;11.762;2023-03-26T01:21:27;97405.53;;;6.73;100.00
17505;BME280;8870;50.950;11.762;2023-03-26T01:27:03;97410.38;;;6.70;100.00
17505;BME280;8870;50.950;11.762;2023-03-26T01:32:55;97405.84;;;6.70;100.00
17505;BME280;8870;50.950;11.762;2023-03-26T01:38:22;97402.50;;;6.68;100.00
17505;BME280;8870;50.950;11.762;2023-03-26T01:44:03;97399.81;;;6.68;100.00
17505;BME280;8870;50.950;11.762;2023-03-26T01:49:26;97393.47;;;6.69;100.00
17505;BME280;8870;50.950;11.762;2023-03-26T01:54:57;97383.09;;;6.66;100.00
17505;BME280;8870;50.950;11.762;2023-03-26T02:00:24;97380.91;;;6.61;100.00
17505;BME280;8870;50.950;11.762;2023-03-26T02:06:04;97370.84;;;6.55;100.00
17505;BME280;8870;50.950;11.762;2023-03-26T02:11:25;97380.03;;;6.53;100.00
17505;BME280;8870;50.950;11.762;2023-03-26T02:17:00;97387.22;;;6.52;100.00
17505;BME280;8870;50.950;11.762;2023-03-26T02:22:18;97382.19;;;6.49;100.00
17505;BME280;8870;50.950;11.762;2023-03-26T02:27:51;97377.34;;;6.53;100.00
17505;BME280;8870;50.950;11.762;2023-03-26T02:33:13;97383.22;;;6.56;100.00
17505;BME280;8870;50.950;11.762;2023-03-26T02:38:44;97384.91;;;6.57;100.00
17505;BME280;8870;50.950;11.762;2023-03-26T02:44:06;97383.75;;;6.60;100.00
17505;BME280;8870;50.950;11.762;2023-03-26T02:49:43;97379.69;;;6.56;100.00
17505;BME280;8870;50.950;11.762;2023-03-26T02:55:20;97377.34;;;6.53;100.00
17505;BME280;8870;50.950;11.762;2023-03-26T03:00:52;97384.38;;;6.54;100.00
17505;BME280;8870;50.950;11.762;2023-03-26T03:06:23;97374.34;;;6.56;100.00
17505;BME280;8870;50.950;11.762;2023-03-26T03:11:54;97376.19;;;6.55;100.00
17505;BME280;8870;50.950;11.762;2023-03-26T03:17:12;97371.19;;;6.60;100.00
17505;BME280;8870;50.950;11.762;2023-03-26T03:22:47;97368.69;;;6.59;100.00
17505;BME280;8870;50.950;11.762;2023-03-26T03:28:06;97368.38;;;6.62;100.00
17505;BME280;8870;50.950;11.762;2023-03-26T03:33:39;97369.03;;;6.64;100.00
17505;BME280;8870;50.950;11.762;2023-03-26T03:39:02;97367.69;;;6.68;100.00
17505;BME280;8870;50.950;11.762;2023-03-26T03:44:33;97359.34;;;6.71;100.00
17505;BME280;8870;50.950;11.762;2023-03-26T03:50:11;97368.38;;;6.70;100.00
17505;BME280;8870;50.950;11.762;2023-03-26T03:56:07;97366.38;;;6.72;100.00
17505;BME280;8870;50.950;11.762;2023-03-26T04:01:54;97370.25;;;6.70;100.00
17505;BME280;8870;50.950;11.762;2023-03-26T04:07:32;97363.34;;;6.67;100.00
17505;BME280;8870;50.950;11.762;2023-03-26T04:13:13;97358.16;;;6.66;100.00
17505;BME280;8870;50.950;11.762;2023-03-26T04:18:56;97355.38;;;6.75;100.00
17505;BME280;8870;50.950;11.762;2023-03-26T04:24:17;97354.34;;;6.76;100.00
17505;BME280;8870;50.950;11.762;2023-03-26T04:29:53;97350.50;;;6.79;100.00
17505;BME280;8870;50.950;11.762;2023-03-26T04:35:13;97346.03;;;6.88;100.00
17505;BME280;8870;50.950;11.762;2023-03-26T04:40:47;97349.34;;;6.90;100.00
17505;BME280;8870;50.950;11.762;2023-03-26T04:46:21;97349.19;;;6.91;100.00
17505;BME280;8870;50.950;11.762;2023-03-26T04:52:00;97351.69;;;6.93;100.00
17505;BME280;8870;50.950;11.762;2023-03-26T04:57:43;97345.03;;;6.97;100.00
17505;BME280;8870;50.950;11.762;2023-03-26T05:03:37;97347.22;;;6.93;100.00
17505;BME280;8870;50.950;11.762;2023-03-26T05:08:56;97352.06;;;6.98;100.00
17505;BME280;8870;50.950;11.762;2023-03-26T05:14:47;97355.38;;;7.00;100.00
17505;BME280;8870;50.950;11.762;2023-03-26T05:20:44;97354.75;;;6.98;100.00
17505;BME280;8870;50.950;11.762;2023-03-26T05:26:19;97351.06;;;6.99;100.00
17505;BME280;8870;50.950;11.762;2023-03-26T05:31:37;97340.50;;;6.98;100.00
17505;BME280;8870;50.950;11.762;2023-03-26T05:37:12;97327.59;;;7.01;100.00
17505;BME280;8870;50.950;11.762;2023-03-26T05:42:40;97328.28;;;7.03;100.00
17505;BME280;8870;50.950;11.762;2023-03-26T05:48:14;97322.25;;;7.01;100.00
17505;BME280;8870;50.950;11.762;2023-03-26T05:53:42;97305.03;;;7.04;100.00
17505;BME280;8870;50.950;11.762;2023-03-26T05:59:31;97305.03;;;7.04;100.00
17505;BME280;8870;50.950;11.762;2023-03-26T06:05:20;97298.19;;;7.09;100.00
17505;BME280;8870;50.950;11.762;2023-03-26T06:11:04;97292.13;;;7.16;100.00
17505;BME280;8870;50.950;11.762;2023-03-26T06:16:22;97280.94;;;7.29;100.00
17505;BME280;8870;50.950;11.762;2023-03-26T06:22:01;97290.47;;;7.31;100.00
17505;BME280;8870;50.950;11.762;2023-03-26T06:27:45;97294.47;;;7.44;100.00
17505;BME280;8870;50.950;11.762;2023-03-26T06:33:45;97295.16;;;7.46;100.00
17505;BME280;8870;50.950;11.762;2023-03-26T06:39:04;97287.44;;;7.51;100.00
17505;BME280;8870;50.950;11.762;2023-03-26T06:45:00;97282.41;;;7.56;100.00
17505;BME280;8870;50.950;11.762;2023-03-26T06:51:04;97275.03;;;7.58;100.00
17505;BME280;8870;50.950;11.762;2023-03-26T06:56:48;97275.53;;;7.62;100.00
17505;BME280;8870;50.950;11.762;2023-03-26T07:02:28;97281.19;;;7.75;100.00
17505;BME280;8870;50.950;11.762;2023-03-26T07:08:17;97276.66;;;7.76;100.00
17505;BME280;8870;50.950;11.762;2023-03-26T07:13:54;97273.31;;;7.82;100.00
17505;BME280;8870;50.950;11.762;2023-03-26T07:19:46;97262.53;;;7.90;100.00
17505;BME280;8870;50.950;11.762;2023-03-26T07:25:08;97258.78;;;8.08;100.00
17505;BME280;8870;50.950;11.762;2023-03-26T07:30:55;97248.66;;;8.18;100.00
17505;BME280;8870;50.950;11.762;2023-03-26T07:36:46;97241.28;;;8.20;100.00
17505;BME280;8870;50.950;11.762;2023-03-26T07:42:59;97223.31;;;8.29;100.00
17505;BME280;8870;50.950;11.762;2023-03-26T07:48:39;97222.03;;;8.48;100.00
17505;BME280;8870;50.950;11.762;2023-03-26T07:54:22;97223.97;;;8.62;100.00
17505;BME280;8870;50.950;11.762;2023-03-26T08:00:15;97217.59;;;8.63;100.00
17505;BME280;8870;50.950;11.762;2023-03-26T08:05:38;97198.47;;;8.58;100.00
17505;BME280;8870;50.950;11.762;2023-03-26T08:11:33;97205.41;;;8.76;100.00
17505;BME280;8870;50.950;11.762;2023-03-26T08:17:01;97189.22;;;8.84;100.00
17505;BME280;8870;50.950;11.762;2023-03-26T08:22:38;97175.19;;;8.97;100.00
17505;BME280;8870;50.950;11.762;2023-03-26T08:28:13;97177.81;;;9.20;100.00
17505;BME280;8870;50.950;11.762;2023-03-26T08:33:33;97166.63;;;9.32;100.00
17505;BME280;8870;50.950;11.762;2023-03-26T08:39:06;97158.72;;;9.30;100.00
17505;BME280;8870;50.950;11.762;2023-03-26T08:56:31;97149.25;;;9.64;100.00
17505;BME280;8870;50.950;11.762;2023-03-26T09:14:40;97139.03;;;9.90;100.00
17505;BME280;8870;50.950;11.762;2023-03-26T09:20:41;97131.06;;;9.96;100.00
17505;BME280;8870;50.950;11.762;2023-03-26T09:37:57;97100.84;;;10.16;100.00
17505;BME280;8870;50.950;11.762;2023-03-26T09:43:46;97098.41;;;9.99;100.00
17505;BME280;8870;50.950;11.762;2023-03-26T09:49:20;97091.88;;;9.94;100.00
17505;BME280;8870;50.950;11.762;2023-03-26T09:55:02;97092.88;;;9.86;100.00
17505;BME280;8870;50.950;11.762;2023-03-26T10:00:43;97088.50;;;9.85;100.00
17505;BME280;8870;50.950;11.762;2023-03-26T10:06:21;97082.44;;;9.98;100.00
17505;BME280;8870;50.950;11.762;2023-03-26T10:12:13;97076.75;;;10.08;100.00
17505;BME280;8870;50.950;11.762;2023-03-26T10:17:43;97065.19;;;10.36;100.00
17505;BME280;8870;50.950;11.762;2023-03-26T10:29:57;97048.59;;;10.54;100.00
17505;BME280;8870;50.950;11.762;2023-03-26T10:35:25;97048.69;;;10.67;100.00
17505;BME280;8870;50.950;11.762;2023-03-26T10:41:12;97035.66;;;10.64;100.00
17505;BME280;8870;50.950;11.762;2023-03-26T10:46:50;97035.50;;;10.72;100.00
17505;BME280;8870;50.950;11.762;2023-03-26T10:52:26;97038.34;;;10.64;100.00
17505;BME280;8870;50.950;11.762;2023-03-26T10:58:07;97031.63;;;10.53;100.00
17505;BME280;8870;50.950;11.762;2023-03-26T11:03:42;97039.56;;;10.61;100.00
17505;BME280;8870;50.950;11.762;2023-03-26T11:09:27;97045.53;;;10.57;100.00
17505;BME280;8870;50.950;11.762;2023-03-26T11:14:53;97039.91;;;10.52;100.00
17505;BME280;8870;50.950;11.762;2023-03-26T11:20:31;97026.97;;;10.40;100.00
17505;BME280;8870;50.950;11.762;2023-03-26T11:26:05;97036.75;;;10.26;100.00
17505;BME280;8870;50.950;11.762;2023-03-26T11:31:57;97037.41;;;10.07;100.00
17505;BME280;8870;50.950;11.762;2023-03-26T11:37:26;97041.06;;;9.99;100.00
17505;BME280;8870;50.950;11.762;2023-03-26T11:43:03;97050.53;;;9.95;100.00
17505;BME280;8870;50.950;11.762;2023-03-26T11:48:29;97041.25;;;9.76;100.00
17505;BME280;8870;50.950;11.762;2023-03-26T11:54:04;97043.69;;;9.55;100.00
17505;BME280;8870;50.950;11.762;2023-03-26T11:59:41;97053.53;;;9.48;100.00
17505;BME280;8870;50.950;11.762;2023-03-26T12:05:18;97055.13;;;9.28;100.00
17505;BME280;8870;50.950;11.762;2023-03-26T12:10:59;97055.13;;;9.28;100.00
17505;BME280;8870;50.950;11.762;2023-03-26T12:16:20;97050.97;;;9.25;100.00
17505;BME280;8870;50.950;11.762;2023-03-26T12:21:54;97046.25;;;9.12;100.00
17505;BME280;8870;50.950;11.762;2023-03-26T12:27:22;97054.41;;;9.04;100.00
17505;BME280;8870;50.950;11.762;2023-03-26T12:32:56;97047.34;;;9.03;100.00
17505;BME280;8870;50.950;11.762;2023-03-26T12:38:30;97051.63;;;8.97;100.00
17505;BME280;8870;50.950;11.762;2023-03-26T12:44:27;97052.06;;;8.86;100.00
17505;BME280;8870;50.950;11.762;2023-03-26T12:50:05;97054.84;;;8.77;100.00
17505;BME280;8870;50.950;11.762;2023-03-26T12:55:57;97058.09;;;8.73;100.00
17505;BME280;8870;50.950;11.762;2023-03-26T13:01:25;97053.22;;;8.53;100.00
17505;BME280;8870;50.950;11.762;2023-03-26T13:07:02;97047.91;;;8.45;100.00
17505;BME280;8870;50.950;11.762;2023-03-26T13:12:34;97046.53;;;8.34;100.00
17505;BME280;8870;50.950;11.762;2023-03-26T13:18:19;97034.44;;;8.15;100.00
17505;BME280;8870;50.950;11.762;2023-03-26T13:23:45;97025.69;;;7.98;100.00
17505;BME280;8870;50.950;11.762;2023-03-26T13:29:31;97017.22;;;8.09;100.00
17505;BME280;8870;50.950;11.762;2023-03-26T13:35:03;97017.75;;;8.05;100.00
17505;BME280;8870;50.950;11.762;2023-03-26T13:40:47;97017.44;;;7.99;100.00
17505;BME280;8870;50.950;11.762;2023-03-26T13:46:20;97023.22;;;7.88;100.00
17505;BME280;8870;50.950;11.762;2023-03-26T13:51:57;97006.44;;;7.71;100.00
17505;BME280;8870;50.950;11.762;2023-03-26T13:57:33;96999.94;;;7.65;100.00
17505;BME280;8870;50.950;11.762;2023-03-26T14:02:56;96998.56;;;7.69;100.00
17505;BME280;8870;50.950;11.762;2023-03-26T14:08:36;97003.28;;;7.67;100.00
17505;BME280;8870;50.950;11.762;2023-03-26T14:14:00;97001.25;;;7.69;100.00
17505;BME280;8870;50.950;11.762;2023-03-26T14:25:29;96990.16;;;7.49;100.00
17505;BME280;8870;50.950;11.762;2023-03-26T14:31:13;96980.31;;;7.42;100.00
17505;BME280;8870;50.950;11.762;2023-03-26T14:37:04;96979.31;;;7.43;100.00
17505;BME280;8870;50.950;11.762;2023-03-26T14:42:51;96976.63;;;7.43;100.00
17505;BME280;8870;50.950;11.762;2023-03-26T14:48:57;96966.72;;;7.43;100.00
17505;BME280;8870;50.950;11.762;2023-03-26T14:54:40;96960.50;;;7.51;100.00
17505;BME280;8870;50.950;11.762;2023-03-26T15:00:45;96961.22;;;7.45;100.00
17505;BME280;8870;50.950;11.762;2023-03-26T15:06:31;96946.44;;;7.49;100.00
17505;BME280;8870;50.950;11.762;2023-03-26T15:12:31;96943.41;;;7.52;100.00
17505;BME280;8870;50.950;11.762;2023-03-26T15:24:14;96938.28;;;7.65;100.00
17505;BME280;8870;50.950;11.762;2023-03-26T15:29:46;96938.56;;;7.70;100.00
17505;BME280;8870;50.950;11.762;2023-03-26T15:35:56;96933.50;;;7.76;100.00
17505;BME280;8870;50.950;11.762;2023-03-26T15:41:24;96930.47;;;7.79;100.00
17505;BME280;8870;50.950;11.762;2023-03-26T15:47:18;96915.41;;;7.78;100.00
17505;BME280;8870;50.950;11.762;2023-03-26T15:52:50;96917.97;;;7.71;100.00
17505;BME280;8870;50.950;11.762;2023-03-26T15:58:25;96912.06;;;7.76;100.00
17505;BME280;8870;50.950;11.762;2023-03-26T16:03:56;96900.63;;;7.82;100.00
17505;BME280;8870;50.950;11.762;2023-03-26T16:09:50;96901.56;;;7.89;100.00
17505;BME280;8870;50.950;11.762;2023-03-26T16:15:28;96914.22;;;7.95;100.00
17505;BME280;8870;50.950;11.762;2023-03-26T16:21:38;96919.81;;;8.09;100.00
17505;BME280;8870;50.950;11.762;2023-03-26T16:32:54;96899.41;;;8.23;100.00
17505;BME280;8870;50.950;11.762;2023-03-26T16:38:17;96897.84;;;8.28;100.00
17505;BME280;8870;50.950;11.762;2023-03-26T16:44:05;96893.28;;;8.29;100.00
17505;BME280;8870;50.950;11.762;2023-03-26T16:49:43;96900.50;;;8.28;100.00
17505;BME280;8870;50.950;11.762;2023-03-26T16:55:34;96904.22;;;8.27;100.00
17505;BME280;8870;50.950;11.762;2023-03-26T17:01:17;96895.50;;;8.25;100.00
17505;BME280;8870;50.950;11.762;2023-03-26T17:06:54;96902.91;;;8.23;100.00
17505;BME280;8870;50.950;11.762;2023-03-26T17:12:34;96904.09;;;8.21;100.00
17505;BME280;8870;50.950;11.762;2023-03-26T17:18:11;96907.69;;;8.13;100.00
17505;BME280;8870;50.950;11.762;2023-03-26T17:24:00;96926.72;;;8.03;100.00
17505;BME280;8870;50.950;11.762;2023-03-26T17:30:01;96929.69;;;7.93;100.00
17505;BME280;8870;50.950;11.762;2023-03-26T17:35:37;96934.41;;;7.91;100.00
17505;BME280;8870;50.950;11.762;2023-03-26T17:40:58;96925.38;;;7.84;100.00
17505;BME280;8870;50.950;11.762;2023-03-26T17:46:36;96923.13;;;7.72;100.00
17505;BME280;8870;50.950;11.762;2023-03-26T17:52:10;96928.88;;;7.69;100.00
17505;BME280;8870;50.950;11.762;2023-03-26T17:57:48;96930.91;;;7.67;100.00
17505;BME280;8870;50.950;11.762;2023-03-26T18:03:16;96936.63;;;7.64;100.00
17505;BME280;8870;50.950;11.762;2023-03-26T18:08:59;96941.97;;;7.64;100.00
17505;BME280;8870;50.950;11.762;2023-03-26T18:14:51;96947.53;;;7.63;100.00
17505;BME280;8870;50.950;11.762;2023-03-26T18:20:23;96955.06;;;7.59;100.00
17505;BME280;8870;50.950;11.762;2023-03-26T18:26:09;96952.09;;;7.54;100.00
17505;BME280;8870;50.950;11.762;2023-03-26T18:31:30;96947.81;;;7.45;100.00
17505;BME280;8870;50.950;11.762;2023-03-26T18:37:22;96958.22;;;7.39;100.00
17505;BME280;8870;50.950;11.762;2023-03-26T18:42:43;96956.75;;;7.37;100.00
17505;BME280;8870;50.950;11.762;2023-03-26T18:48:19;96961.44;;;7.35;100.00
17505;BME280;8870;50.950;11.762;2023-03-26T18:53:45;96973.47;;;7.39;100.00
17505;BME280;8870;50.950;11.762;2023-03-26T18:59:24;96974.16;;;7.33;100.00
17505;BME280;8870;50.950;11.762;2023-03-26T19:04:49;96985.00;;;7.39;100.00
17505;BME280;8870;50.950;11.762;2023-03-26T19:10:23;96966.59;;;7.36;100.00
17505;BME280;8870;50.950;11.762;2023-03-26T19:15:43;96971.97;;;7.36;100.00
17505;BME280;8870;50.950;11.762;2023-03-26T19:21:16;96970.81;;;7.31;100.00
17505;BME280;8870;50.950;11.762;2023-03-26T19:26:39;96978.38;;;7.27;100.00
17505;BME280;8870;50.950;11.762;2023-03-26T19:32:17;96979.25;;;7.19;100.00
17505;BME280;8870;50.950;11.762;2023-03-26T19:37:48;96974.09;;;7.18;100.00
17505;BME280;8870;50.950;11.762;2023-03-26T19:43:23;96968.41;;;7.13;100.00
17505;BME280;8870;50.950;11.762;2023-03-26T19:48:45;96974.34;;;7.00;100.00
17505;BME280;8870;50.950;11.762;2023-03-26T19:54:16;96974.88;;;6.95;100.00
17505;BME280;8870;50.950;11.762;2023-03-26T19:59:50;96973.72;;;6.89;100.00
17505;BME280;8870;50.950;11.762;2023-03-26T20:05:14;96972.91;;;6.81;100.00
17505;BME280;8870;50.950;11.762;2023-03-26T20:10:50;96971.59;;;6.76;100.00
17505;BME280;8870;50.950;11.762;2023-03-26T20:16:14;96963.59;;;6.68;100.00
17505;BME280;8870;50.950;11.762;2023-03-26T20:21:48;96964.97;;;6.56;100.00
17505;BME280;8870;50.950;11.762;2023-03-26T20:27:07;96971.69;;;6.52;100.00
17505;BME280;8870;50.950;11.762;2023-03-26T20:32:42;96973.22;;;6.46;100.00
17505;BME280;8870;50.950;11.762;2023-03-26T20:38:21;96976.72;;;6.30;100.00
17505;BME280;8870;50.950;11.762;2023-03-26T20:43:54;96989.75;;;6.41;100.00
17505;BME280;8870;50.950;11.762;2023-03-26T20:49:15;96976.03;;;6.44;100.00
17505;BME280;8870;50.950;11.762;2023-03-26T20:54:47;96974.88;;;6.39;100.00
17505;BME280;8870;50.950;11.762;2023-03-26T21:00:20;96979.56;;;6.37;100.00
17505;BME280;8870;50.950;11.762;2023-03-26T21:05:42;96980.75;;;6.26;100.00
17505;BME280;8870;50.950;11.762;2023-03-26T21:11:18;96966.38;;;6.19;100.00
17505;BME280;8870;50.950;11.762;2023-03-26T21:16:37;96976.22;;;6.26;100.00
17505;BME280;8870;50.950;11.762;2023-03-26T21:22:21;96986.97;;;6.10;100.00
17505;BME280;8870;50.950;11.762;2023-03-26T21:27:50;96998.47;;;6.10;100.00
17505;BME280;8870;50.950;11.762;2023-03-26T21:33:24;97006.19;;;6.05;100.00
17505;BME280;8870;50.950;11.762;2023-03-26T21:38:45;97016.88;;;6.05;100.00
17505;BME280;8870;50.950;11.762;2023-03-26T21:44:18;97013.16;;;5.98;100.00
17505;BME280;8870;50.950;11.762;2023-03-26T21:49:37;97013.88;;;6.00;100.00
17505;BME280;8870;50.950;11.762;2023-03-26T21:55:14;97023.53;;;5.93;100.00
17505;BME280;8870;50.950;11.762;2023-03-26T22:00:55;97028.88;;;5.93;100.00
17505;BME280;8870;50.950;11.762;2023-03-26T22:06:23;97040.22;;;5.95;100.00
17505;BME280;8870;50.950;11.762;2023-03-26T22:12:02;97037.53;;;5.78;100.00
17505;BME280;8870;50.950;11.762;2023-03-26T22:17:20;97058.44;;;5.83;100.00
17505;BME280;8870;50.950;11.762;2023-03-26T22:22:51;97058.88;;;5.62;100.00
17505;BME280;8870;50.950;11.762;2023-03-26T22:28:12;97059.34;;;5.40;100.00
17505;BME280;8870;50.950;11.762;2023-03-26T22:33:44;97065.91;;;5.20;100.00
17505;BME280;8870;50.950;11.762;2023-03-26T22:39:02;97092.00;;;5.26;100.00
17505;BME280;8870;50.950;11.762;2023-03-26T22:44:37;97089.03;;;5.03;100.00
17505;BME280;8870;50.950;11.762;2023-03-26T22:49:56;97094.50;;;4.93;100.00
17505;BME280;8870;50.950;11.762;2023-03-26T22:55:28;97095.91;;;4.79;100.00
17505;BME280;8870;50.950;11.762;2023-03-26T23:01:06;97117.78;;;4.56;100.00
17505;BME280;8870;50.950;11.762;2023-03-26T23:06:25;97112.44;;;4.56;100.00
17505;BME280;8870;50.950;11.762;2023-03-26T23:11:56;97123.75;;;4.50;100.00
17505;BME280;8870;50.950;11.762;2023-03-26T23:17:18;97143.19;;;4.42;100.00
17505;BME280;8870;50.950;11.762;2023-03-26T23:22:50;97158.19;;;4.25;100.00
17505;BME280;8870;50.950;11.762;2023-03-26T23:28:08;97160.41;;;4.30;100.00
17505;BME280;8870;50.950;11.762;2023-03-26T23:33:42;97180.44;;;4.16;100.00
17505;BME280;8870;50.950;11.762;2023-03-26T23:39:04;97186.53;;;4.08;100.00
17505;BME280;8870;50.950;11.762;2023-03-26T23:44:35;97195.97;;;4.03;100.00
17505;BME280;8870;50.950;11.762;2023-03-26T23:49:55;97217.16;;;3.94;100.00
17505;BME280;8870;50.950;11.762;2023-03-26T23:55:27;97213.44;;;3.87;100.00
